sensor_id;sensor_type;location;lat;lon;timestamp;P1;durP1;ratioP1;P2;durP2;ratioP2
78844;SDS011;68195;50.854;2.860;2023-05-28T00:03:40;21.97;;;9.53;;
78844;SDS011;68195;50.854;2.860;2023-05-28T00:06:06;20.92;;;9.50;;
78844;SDS011;68195;50.854;2.860;2023-05-28T00:08:37;24.88;;;9.93;;
78844;SDS011;68195;50.854;2.860;2023-05-28T00:11:05;23.80;;;12.00;;
78844;SDS011;68195;50.854;2.860;2023-05-28T00:15:58;20.27;;;9.65;;
78844;SDS011;68195;50.854;2.860;2023-05-28T00:18:24;17.88;;;10.60;;
78844;SDS011;68195;50.854;2.860;2023-05-28T00:20:53;18.42;;;11.30;;
78844;SDS011;68195;50.854;2.860;2023-05-28T00:23:18;28.00;;;12.13;;
78844;SDS011;68195;50.854;2.860;2023-05-28T00:28:09;23.67;;;10.93;;
78844;SDS011;68195;50.854;2.860;2023-05-28T00:30:39;22.30;;;12.38;;
78844;SDS011;68195;50.854;2.860;2023-05-28T00:33:07;23.73;;;13.77;;
78844;SDS011;68195;50.854;2.860;2023-05-28T00:35:33;21.75;;;11.43;;
78844;SDS011;68195;50.854;2.860;2023-05-28T00:38:01;20.48;;;11.20;;
78844;SDS011;68195;50.854;2.860;2023-05-28T00:40:32;27.88;;;12.10;;
78844;SDS011;68195;50.854;2.860;2023-05-28T00:42:57;24.88;;;11.85;;
78844;SDS011;68195;50.854;2.860;2023-05-28T00:45:22;27.83;;;12.43;;
78844;SDS011;68195;50.854;2.860;2023-05-28T00:50:13;21.10;;;10.90;;
78844;SDS011;68195;50.854;2.860;2023-05-28T00:52:41;27.58;;;11.68;;
78844;SDS011;68195;50.854;2.860;2023-05-28T00:55:13;23.17;;;12.30;;
78844;SDS011;68195;50.854;2.860;2023-05-28T00:57:40;27.42;;;12.18;;
78844;SDS011;68195;50.854;2.860;2023-05-28T01:00:06;30.55;;;11.73;;
78844;SDS011;68195;50.854;2.860;2023-05-28T01:02:35;27.35;;;11.60;;
78844;SDS011;68195;50.854;2.860;2023-05-28T01:05:03;29.85;;;12.52;;
78844;SDS011;68195;50.854;2.860;2023-05-28T01:07:28;27.58;;;11.60;;
78844;SDS011;68195;50.854;2.860;2023-05-28T01:09:55;24.85;;;11.15;;
78844;SDS011;68195;50.854;2.860;2023-05-28T01:12:23;24.25;;;11.80;;
78844;SDS011;68195;50.854;2.860;2023-05-28T01:14:51;25.52;;;11.43;;
78844;SDS011;68195;50.854;2.860;2023-05-28T01:17:19;27.23;;;11.05;;
78844;SDS011;68195;50.854;2.860;2023-05-28T01:19:51;20.88;;;11.55;;
78844;SDS011;68195;50.854;2.860;2023-05-28T01:24:45;24.60;;;10.60;;
78844;SDS011;68195;50.854;2.860;2023-05-28T01:27:14;26.88;;;11.07;;
78844;SDS011;68195;50.854;2.860;2023-05-28T01:29:40;21.45;;;10.27;;
78844;SDS011;68195;50.854;2.860;2023-05-28T01:34:31;23.70;;;9.50;;
78844;SDS011;68195;50.854;2.860;2023-05-28T01:39:24;21.25;;;9.63;;
78844;SDS011;68195;50.854;2.860;2023-05-28T01:41:51;22.65;;;9.43;;
78844;SDS011;68195;50.854;2.860;2023-05-28T01:44:21;25.17;;;11.20;;
78844;SDS011;68195;50.854;2.860;2023-05-28T01:46:48;22.80;;;10.85;;
78844;SDS011;68195;50.854;2.860;2023-05-28T01:49:18;17.70;;;9.48;;
78844;SDS011;68195;50.854;2.860;2023-05-28T01:51:44;22.70;;;9.68;;
78844;SDS011;68195;50.854;2.860;2023-05-28T01:56:35;20.10;;;10.95;;
78844;SDS011;68195;50.854;2.860;2023-05-28T02:01:28;20.27;;;10.13;;
78844;SDS011;68195;50.854;2.860;2023-05-28T02:03:57;20.63;;;9.75;;
78844;SDS011;68195;50.854;2.860;2023-05-28T02:06:27;24.65;;;11.75;;
78844;SDS011;68195;50.854;2.860;2023-05-28T02:08:54;21.17;;;9.88;;
78844;SDS011;68195;50.854;2.860;2023-05-28T02:13:47;20.75;;;9.48;;
78844;SDS011;68195;50.854;2.860;2023-05-28T02:16:13;16.40;;;9.98;;
78844;SDS011;68195;50.854;2.860;2023-05-28T02:18:43;20.98;;;10.15;;
78844;SDS011;68195;50.854;2.860;2023-05-28T02:21:12;17.95;;;9.82;;
78844;SDS011;68195;50.854;2.860;2023-05-28T02:26:11;14.88;;;9.38;;
78844;SDS011;68195;50.854;2.860;2023-05-28T02:28:36;17.35;;;8.88;;
78844;SDS011;68195;50.854;2.860;2023-05-28T02:33:27;18.60;;;8.13;;
78844;SDS011;68195;50.854;2.860;2023-05-28T02:38:18;14.43;;;8.00;;
78844;SDS011;68195;50.854;2.860;2023-05-28T02:43:09;18.75;;;9.07;;
78844;SDS011;68195;50.854;2.860;2023-05-28T02:48:03;17.00;;;8.10;;
78844;SDS011;68195;50.854;2.860;2023-05-28T02:50:30;16.13;;;8.38;;
78844;SDS011;68195;50.854;2.860;2023-05-28T02:52:56;15.20;;;8.48;;
78844;SDS011;68195;50.854;2.860;2023-05-28T02:57:49;16.48;;;9.38;;
78844;SDS011;68195;50.854;2.860;2023-05-28T03:00:17;15.90;;;8.98;;
78844;SDS011;68195;50.854;2.860;2023-05-28T03:02:46;16.08;;;9.68;;
78844;SDS011;68195;50.854;2.860;2023-05-28T03:05:11;15.90;;;9.38;;
78844;SDS011;68195;50.854;2.860;2023-05-28T03:07:39;18.83;;;8.95;;
78844;SDS011;68195;50.854;2.860;2023-05-28T03:10:05;15.35;;;9.00;;
78844;SDS011;68195;50.854;2.860;2023-05-28T03:12:34;15.85;;;8.88;;
78844;SDS011;68195;50.854;2.860;2023-05-28T03:14:59;16.75;;;9.68;;
78844;SDS011;68195;50.854;2.860;2023-05-28T03:17:25;19.23;;;9.93;;
78844;SDS011;68195;50.854;2.860;2023-05-28T03:22:16;20.67;;;10.13;;
78844;SDS011;68195;50.854;2.860;2023-05-28T03:24:43;22.23;;;11.10;;
78844;SDS011;68195;50.854;2.860;2023-05-28T03:27:09;17.45;;;9.90;;
78844;SDS011;68195;50.854;2.860;2023-05-28T03:32:02;23.23;;;10.83;;
78844;SDS011;68195;50.854;2.860;2023-05-28T03:34:28;24.13;;;11.07;;
78844;SDS011;68195;50.854;2.860;2023-05-28T03:36:56;23.92;;;11.13;;
78844;SDS011;68195;50.854;2.860;2023-05-28T03:39:24;22.77;;;10.57;;
78844;SDS011;68195;50.854;2.860;2023-05-28T03:41:49;20.27;;;10.75;;
78844;SDS011;68195;50.854;2.860;2023-05-28T03:46:43;21.92;;;11.73;;
78844;SDS011;68195;50.854;2.860;2023-05-28T03:49:08;22.88;;;11.40;;
78844;SDS011;68195;50.854;2.860;2023-05-28T03:53:59;24.17;;;11.33;;
78844;SDS011;68195;50.854;2.860;2023-05-28T03:56:25;31.60;;;12.07;;
78844;SDS011;68195;50.854;2.860;2023-05-28T04:01:19;30.17;;;10.65;;
78844;SDS011;68195;50.854;2.860;2023-05-28T04:03:45;21.67;;;11.32;;
78844;SDS011;68195;50.854;2.860;2023-05-28T04:06:13;31.17;;;13.57;;
78844;SDS011;68195;50.854;2.860;2023-05-28T04:08:39;30.75;;;12.13;;
78844;SDS011;68195;50.854;2.860;2023-05-28T04:13:32;26.80;;;12.52;;
78844;SDS011;68195;50.854;2.860;2023-05-28T04:16:00;26.30;;;12.63;;
78844;SDS011;68195;50.854;2.860;2023-05-28T04:18:28;27.50;;;12.98;;
78844;SDS011;68195;50.854;2.860;2023-05-28T04:20:56;28.27;;;11.93;;
78844;SDS011;68195;50.854;2.860;2023-05-28T04:23:21;22.23;;;11.95;;
78844;SDS011;68195;50.854;2.860;2023-05-28T04:28:12;25.60;;;12.93;;
78844;SDS011;68195;50.854;2.860;2023-05-28T04:30:40;30.05;;;13.20;;
78844;SDS011;68195;50.854;2.860;2023-05-28T04:33:09;25.75;;;12.00;;
78844;SDS011;68195;50.854;2.860;2023-05-28T04:35:34;28.17;;;12.73;;
78844;SDS011;68195;50.854;2.860;2023-05-28T04:40:26;31.02;;;13.80;;
78844;SDS011;68195;50.854;2.860;2023-05-28T04:42:51;26.67;;;12.93;;
78844;SDS011;68195;50.854;2.860;2023-05-28T04:45:22;26.50;;;13.60;;
78844;SDS011;68195;50.854;2.860;2023-05-28T04:47:50;35.78;;;14.20;;
78844;SDS011;68195;50.854;2.860;2023-05-28T04:50:15;38.33;;;15.20;;
78844;SDS011;68195;50.854;2.860;2023-05-28T04:55:06;34.37;;;14.83;;
78844;SDS011;68195;50.854;2.860;2023-05-28T04:57:32;43.80;;;15.55;;
78844;SDS011;68195;50.854;2.860;2023-05-28T04:59:58;37.38;;;17.35;;
78844;SDS011;68195;50.854;2.860;2023-05-28T05:02:24;49.83;;;19.30;;
78844;SDS011;68195;50.854;2.860;2023-05-28T05:04:52;50.70;;;20.02;;
78844;SDS011;68195;50.854;2.860;2023-05-28T05:07:17;56.13;;;22.73;;
78844;SDS011;68195;50.854;2.860;2023-05-28T05:09:50;60.60;;;20.83;;
78844;SDS011;68195;50.854;2.860;2023-05-28T05:12:16;59.17;;;25.10;;
78844;SDS011;68195;50.854;2.860;2023-05-28T05:14:44;60.47;;;25.98;;
78844;SDS011;68195;50.854;2.860;2023-05-28T05:17:14;60.28;;;23.92;;
78844;SDS011;68195;50.854;2.860;2023-05-28T05:19:42;56.35;;;24.17;;
78844;SDS011;68195;50.854;2.860;2023-05-28T05:22:08;57.20;;;21.67;;
78844;SDS011;68195;50.854;2.860;2023-05-28T05:24:35;60.67;;;23.15;;
78844;SDS011;68195;50.854;2.860;2023-05-28T05:27:01;60.00;;;23.38;;
78844;SDS011;68195;50.854;2.860;2023-05-28T05:29:29;50.55;;;21.45;;
78844;SDS011;68195;50.854;2.860;2023-05-28T05:31:56;51.00;;;21.95;;
78844;SDS011;68195;50.854;2.860;2023-05-28T05:36:48;42.17;;;19.80;;
78844;SDS011;68195;50.854;2.860;2023-05-28T05:41:39;50.42;;;20.65;;
78844;SDS011;68195;50.854;2.860;2023-05-28T05:44:05;48.03;;;20.63;;
78844;SDS011;68195;50.854;2.860;2023-05-28T05:46:31;46.92;;;19.73;;
78844;SDS011;68195;50.854;2.860;2023-05-28T05:48:59;48.55;;;20.88;;
78844;SDS011;68195;50.854;2.860;2023-05-28T05:51:26;53.22;;;22.17;;
78844;SDS011;68195;50.854;2.860;2023-05-28T05:56:17;44.10;;;21.13;;
78844;SDS011;68195;50.854;2.860;2023-05-28T06:01:08;46.38;;;21.17;;
78844;SDS011;68195;50.854;2.860;2023-05-28T06:03:39;54.90;;;20.83;;
78844;SDS011;68195;50.854;2.860;2023-05-28T06:06:09;42.58;;;20.70;;
78844;SDS011;68195;50.854;2.860;2023-05-28T06:08:38;55.70;;;21.33;;
78844;SDS011;68195;50.854;2.860;2023-05-28T06:11:06;54.75;;;22.85;;
78844;SDS011;68195;50.854;2.860;2023-05-28T06:13:35;56.30;;;24.15;;
78844;SDS011;68195;50.854;2.860;2023-05-28T06:16:03;65.07;;;24.13;;
78844;SDS011;68195;50.854;2.860;2023-05-28T06:18:39;50.35;;;23.05;;
78844;SDS011;68195;50.854;2.860;2023-05-28T06:21:07;49.08;;;22.92;;
78844;SDS011;68195;50.854;2.860;2023-05-28T06:26:15;51.13;;;23.00;;
78844;SDS011;68195;50.854;2.860;2023-05-28T06:28:41;59.92;;;25.58;;
78844;SDS011;68195;50.854;2.860;2023-05-28T06:31:12;52.80;;;23.67;;
78844;SDS011;68195;50.854;2.860;2023-05-28T06:33:40;54.17;;;24.63;;
78844;SDS011;68195;50.854;2.860;2023-05-28T06:38:32;47.50;;;22.45;;
78844;SDS011;68195;50.854;2.860;2023-05-28T06:43:22;56.22;;;24.40;;
78844;SDS011;68195;50.854;2.860;2023-05-28T06:45:50;52.10;;;25.13;;
78844;SDS011;68195;50.854;2.860;2023-05-28T06:50:41;49.97;;;22.73;;
78844;SDS011;68195;50.854;2.860;2023-05-28T06:55:32;43.78;;;22.52;;
78844;SDS011;68195;50.854;2.860;2023-05-28T06:57:58;47.08;;;21.33;;
78844;SDS011;68195;50.854;2.860;2023-05-28T07:02:49;40.30;;;19.63;;
78844;SDS011;68195;50.854;2.860;2023-05-28T07:07:39;37.40;;;18.58;;
78844;SDS011;68195;50.854;2.860;2023-05-28T07:12:33;32.20;;;16.60;;
78844;SDS011;68195;50.854;2.860;2023-05-28T07:17:24;38.47;;;18.45;;
78844;SDS011;68195;50.854;2.860;2023-05-28T07:22:19;41.05;;;18.30;;
78844;SDS011;68195;50.854;2.860;2023-05-28T07:24:48;35.72;;;17.00;;
78844;SDS011;68195;50.854;2.860;2023-05-28T07:29:39;34.43;;;15.83;;
78844;SDS011;68195;50.854;2.860;2023-05-28T07:32:07;31.88;;;16.52;;
78844;SDS011;68195;50.854;2.860;2023-05-28T07:37:00;37.13;;;16.90;;
78844;SDS011;68195;50.854;2.860;2023-05-28T07:41:51;28.52;;;16.42;;
78844;SDS011;68195;50.854;2.860;2023-05-28T07:44:19;32.05;;;14.30;;
78844;SDS011;68195;50.854;2.860;2023-05-28T07:46:47;32.72;;;16.17;;
78844;SDS011;68195;50.854;2.860;2023-05-28T07:49:15;28.55;;;12.30;;
78844;SDS011;68195;50.854;2.860;2023-05-28T07:51:41;33.17;;;13.57;;
78844;SDS011;68195;50.854;2.860;2023-05-28T07:54:10;28.08;;;13.07;;
78844;SDS011;68195;50.854;2.860;2023-05-28T07:56:36;26.60;;;11.80;;
78844;SDS011;68195;50.854;2.860;2023-05-28T07:59:04;31.55;;;13.68;;
78844;SDS011;68195;50.854;2.860;2023-05-28T08:01:30;21.15;;;12.00;;
78844;SDS011;68195;50.854;2.860;2023-05-28T08:03:55;25.55;;;10.38;;
78844;SDS011;68195;50.854;2.860;2023-05-28T08:06:21;18.45;;;11.07;;
78844;SDS011;68195;50.854;2.860;2023-05-28T08:08:46;21.67;;;11.07;;
78844;SDS011;68195;50.854;2.860;2023-05-28T08:11:12;21.00;;;10.63;;
78844;SDS011;68195;50.854;2.860;2023-05-28T08:13:39;26.88;;;11.30;;
78844;SDS011;68195;50.854;2.860;2023-05-28T08:16:05;19.85;;;9.90;;
78844;SDS011;68195;50.854;2.860;2023-05-28T08:18:35;19.83;;;11.50;;
78844;SDS011;68195;50.854;2.860;2023-05-28T08:21:01;21.33;;;10.10;;
78844;SDS011;68195;50.854;2.860;2023-05-28T08:23:26;19.73;;;9.50;;
78844;SDS011;68195;50.854;2.860;2023-05-28T08:25:59;17.23;;;9.40;;
78844;SDS011;68195;50.854;2.860;2023-05-28T08:28:27;19.60;;;10.20;;
78844;SDS011;68195;50.854;2.860;2023-05-28T08:30:56;23.88;;;9.27;;
78844;SDS011;68195;50.854;2.860;2023-05-28T08:33:22;19.25;;;10.60;;
78844;SDS011;68195;50.854;2.860;2023-05-28T08:35:50;15.07;;;7.68;;
78844;SDS011;68195;50.854;2.860;2023-05-28T08:38:16;21.88;;;8.20;;
78844;SDS011;68195;50.854;2.860;2023-05-28T08:40:43;13.82;;;8.02;;
78844;SDS011;68195;50.854;2.860;2023-05-28T08:43:13;15.88;;;7.85;;
78844;SDS011;68195;50.854;2.860;2023-05-28T08:45:38;13.95;;;7.72;;
78844;SDS011;68195;50.854;2.860;2023-05-28T08:48:07;13.82;;;7.40;;
78844;SDS011;68195;50.854;2.860;2023-05-28T08:50:35;13.90;;;7.45;;
78844;SDS011;68195;50.854;2.860;2023-05-28T08:53:04;13.48;;;7.13;;
78844;SDS011;68195;50.854;2.860;2023-05-28T08:55:34;15.93;;;7.10;;
78844;SDS011;68195;50.854;2.860;2023-05-28T08:58:02;13.02;;;7.03;;
78844;SDS011;68195;50.854;2.860;2023-05-28T09:00:28;12.35;;;6.53;;
78844;SDS011;68195;50.854;2.860;2023-05-28T09:02:57;13.32;;;5.90;;
78844;SDS011;68195;50.854;2.860;2023-05-28T09:05:23;11.68;;;5.45;;
78844;SDS011;68195;50.854;2.860;2023-05-28T09:07:48;9.05;;;5.65;;
78844;SDS011;68195;50.854;2.860;2023-05-28T09:10:14;11.38;;;6.10;;
78844;SDS011;68195;50.854;2.860;2023-05-28T09:12:39;11.07;;;5.47;;
78844;SDS011;68195;50.854;2.860;2023-05-28T09:15:21;8.52;;;4.85;;
78844;SDS011;68195;50.854;2.860;2023-05-28T09:17:52;16.38;;;5.47;;
78844;SDS011;68195;50.854;2.860;2023-05-28T09:20:17;13.02;;;5.03;;
78844;SDS011;68195;50.854;2.860;2023-05-28T09:22:45;13.68;;;5.75;;
78844;SDS011;68195;50.854;2.860;2023-05-28T09:25:22;11.88;;;5.80;;
78844;SDS011;68195;50.854;2.860;2023-05-28T09:27:49;12.02;;;5.50;;
78844;SDS011;68195;50.854;2.860;2023-05-28T09:30:15;13.10;;;6.43;;
78844;SDS011;68195;50.854;2.860;2023-05-28T09:32:42;11.57;;;4.60;;
78844;SDS011;68195;50.854;2.860;2023-05-28T09:35:13;8.15;;;4.60;;
78844;SDS011;68195;50.854;2.860;2023-05-28T09:37:43;8.65;;;4.47;;
78844;SDS011;68195;50.854;2.860;2023-05-28T09:40:08;14.77;;;5.32;;
78844;SDS011;68195;50.854;2.860;2023-05-28T09:42:37;10.85;;;4.55;;
78844;SDS011;68195;50.854;2.860;2023-05-28T09:45:08;13.43;;;4.45;;
78844;SDS011;68195;50.854;2.860;2023-05-28T09:47:41;12.00;;;4.97;;
78844;SDS011;68195;50.854;2.860;2023-05-28T09:50:08;10.80;;;5.45;;
78844;SDS011;68195;50.854;2.860;2023-05-28T09:52:34;10.00;;;5.30;;
78844;SDS011;68195;50.854;2.860;2023-05-28T09:55:06;10.70;;;5.72;;
78844;SDS011;68195;50.854;2.860;2023-05-28T09:57:32;12.73;;;5.35;;
78844;SDS011;68195;50.854;2.860;2023-05-28T09:59:59;14.77;;;5.80;;
78844;SDS011;68195;50.854;2.860;2023-05-28T10:02:48;13.05;;;5.85;;
78844;SDS011;68195;50.854;2.860;2023-05-28T10:05:23;14.73;;;6.13;;
78844;SDS011;68195;50.854;2.860;2023-05-28T10:07:53;9.95;;;5.57;;
78844;SDS011;68195;50.854;2.860;2023-05-28T10:10:20;11.05;;;5.35;;
78844;SDS011;68195;50.854;2.860;2023-05-28T10:12:48;13.10;;;6.95;;
78844;SDS011;68195;50.854;2.860;2023-05-28T10:15:18;11.32;;;5.13;;
78844;SDS011;68195;50.854;2.860;2023-05-28T10:17:44;10.48;;;4.45;;
78844;SDS011;68195;50.854;2.860;2023-05-28T10:20:12;10.15;;;5.05;;
78844;SDS011;68195;50.854;2.860;2023-05-28T10:22:40;10.95;;;4.78;;
78844;SDS011;68195;50.854;2.860;2023-05-28T10:25:08;11.88;;;5.50;;
78844;SDS011;68195;50.854;2.860;2023-05-28T10:27:37;14.98;;;5.38;;
78844;SDS011;68195;50.854;2.860;2023-05-28T10:30:09;10.40;;;5.28;;
78844;SDS011;68195;50.854;2.860;2023-05-28T10:32:41;13.07;;;5.50;;
78844;SDS011;68195;50.854;2.860;2023-05-28T10:35:10;11.52;;;5.05;;
78844;SDS011;68195;50.854;2.860;2023-05-28T10:37:38;9.68;;;5.38;;
78844;SDS011;68195;50.854;2.860;2023-05-28T10:40:08;11.80;;;6.28;;
78844;SDS011;68195;50.854;2.860;2023-05-28T10:42:43;12.32;;;5.97;;
78844;SDS011;68195;50.854;2.860;2023-05-28T10:45:09;12.27;;;5.32;;
78844;SDS011;68195;50.854;2.860;2023-05-28T10:47:39;11.68;;;4.40;;
78844;SDS011;68195;50.854;2.860;2023-05-28T10:52:35;10.95;;;5.75;;
78844;SDS011;68195;50.854;2.860;2023-05-28T10:55:01;11.73;;;6.50;;
78844;SDS011;68195;50.854;2.860;2023-05-28T10:57:42;13.30;;;6.47;;
78844;SDS011;68195;50.854;2.860;2023-05-28T11:00:21;16.02;;;6.10;;
78844;SDS011;68195;50.854;2.860;2023-05-28T11:02:50;18.58;;;7.78;;
78844;SDS011;68195;50.854;2.860;2023-05-28T11:05:17;14.50;;;7.53;;
78844;SDS011;68195;50.854;2.860;2023-05-28T11:07:54;14.75;;;6.97;;
78844;SDS011;68195;50.854;2.860;2023-05-28T11:10:20;14.10;;;6.53;;
78844;SDS011;68195;50.854;2.860;2023-05-28T11:12:46;15.95;;;7.28;;
78844;SDS011;68195;50.854;2.860;2023-05-28T11:15:14;14.75;;;6.60;;
78844;SDS011;68195;50.854;2.860;2023-05-28T11:17:40;14.35;;;7.85;;
78844;SDS011;68195;50.854;2.860;2023-05-28T11:22:54;17.27;;;8.18;;
78844;SDS011;68195;50.854;2.860;2023-05-28T11:25:20;15.98;;;8.10;;
78844;SDS011;68195;50.854;2.860;2023-05-28T11:27:52;15.23;;;7.00;;
78844;SDS011;68195;50.854;2.860;2023-05-28T11:30:22;17.63;;;8.20;;
78844;SDS011;68195;50.854;2.860;2023-05-28T11:32:49;11.13;;;7.00;;
78844;SDS011;68195;50.854;2.860;2023-05-28T11:35:15;14.80;;;7.20;;
78844;SDS011;68195;50.854;2.860;2023-05-28T11:37:42;17.27;;;7.60;;
78844;SDS011;68195;50.854;2.860;2023-05-28T11:40:10;14.43;;;7.53;;
78844;SDS011;68195;50.854;2.860;2023-05-28T11:42:40;13.82;;;7.40;;
78844;SDS011;68195;50.854;2.860;2023-05-28T11:45:07;12.70;;;6.63;;
78844;SDS011;68195;50.854;2.860;2023-05-28T11:47:34;15.77;;;7.25;;
78844;SDS011;68195;50.854;2.860;2023-05-28T11:50:07;15.27;;;6.80;;
78844;SDS011;68195;50.854;2.860;2023-05-28T11:52:33;16.60;;;7.03;;
78844;SDS011;68195;50.854;2.860;2023-05-28T11:54:58;14.55;;;6.43;;
78844;SDS011;68195;50.854;2.860;2023-05-28T11:57:26;16.13;;;7.28;;
78844;SDS011;68195;50.854;2.860;2023-05-28T12:02:28;17.33;;;7.82;;
78844;SDS011;68195;50.854;2.860;2023-05-28T12:04:57;15.93;;;7.00;;
78844;SDS011;68195;50.854;2.860;2023-05-28T12:07:31;16.88;;;7.65;;
78844;SDS011;68195;50.854;2.860;2023-05-28T12:10:09;16.42;;;7.50;;
78844;SDS011;68195;50.854;2.860;2023-05-28T12:15:14;12.32;;;7.60;;
78844;SDS011;68195;50.854;2.860;2023-05-28T12:17:41;15.27;;;6.65;;
78844;SDS011;68195;50.854;2.860;2023-05-28T12:22:39;16.42;;;7.38;;
78844;SDS011;68195;50.854;2.860;2023-05-28T12:25:06;16.00;;;7.18;;
78844;SDS011;68195;50.854;2.860;2023-05-28T12:27:37;16.52;;;6.72;;
78844;SDS011;68195;50.854;2.860;2023-05-28T12:30:03;19.10;;;8.15;;
78844;SDS011;68195;50.854;2.860;2023-05-28T12:32:29;18.85;;;7.15;;
78844;SDS011;68195;50.854;2.860;2023-05-28T12:34:55;21.83;;;7.55;;
78844;SDS011;68195;50.854;2.860;2023-05-28T12:37:23;16.20;;;6.85;;
78844;SDS011;68195;50.854;2.860;2023-05-28T12:39:49;13.27;;;6.95;;
78844;SDS011;68195;50.854;2.860;2023-05-28T12:42:20;18.77;;;7.35;;
78844;SDS011;68195;50.854;2.860;2023-05-28T12:44:46;15.57;;;7.55;;
78844;SDS011;68195;50.854;2.860;2023-05-28T12:47:11;17.17;;;8.40;;
78844;SDS011;68195;50.854;2.860;2023-05-28T12:49:37;18.63;;;7.45;;
78844;SDS011;68195;50.854;2.860;2023-05-28T12:52:05;15.63;;;7.25;;
78844;SDS011;68195;50.854;2.860;2023-05-28T12:54:32;16.23;;;7.40;;
78844;SDS011;68195;50.854;2.860;2023-05-28T12:56:58;15.82;;;7.53;;
78844;SDS011;68195;50.854;2.860;2023-05-28T12:59:26;17.20;;;7.25;;
78844;SDS011;68195;50.854;2.860;2023-05-28T13:01:53;13.85;;;7.15;;
78844;SDS011;68195;50.854;2.860;2023-05-28T13:04:21;14.52;;;7.07;;
78844;SDS011;68195;50.854;2.860;2023-05-28T13:06:50;15.18;;;6.90;;
78844;SDS011;68195;50.854;2.860;2023-05-28T13:09:16;16.30;;;7.63;;
78844;SDS011;68195;50.854;2.860;2023-05-28T13:11:45;17.35;;;8.05;;
78844;SDS011;68195;50.854;2.860;2023-05-28T13:14:11;16.73;;;7.47;;
78844;SDS011;68195;50.854;2.860;2023-05-28T13:16:37;14.65;;;7.15;;
78844;SDS011;68195;50.854;2.860;2023-05-28T13:19:05;21.40;;;8.48;;
78844;SDS011;68195;50.854;2.860;2023-05-28T13:21:33;18.40;;;7.70;;
78844;SDS011;68195;50.854;2.860;2023-05-28T13:24:06;17.73;;;8.60;;
78844;SDS011;68195;50.854;2.860;2023-05-28T13:29:02;17.95;;;6.75;;
78844;SDS011;68195;50.854;2.860;2023-05-28T13:31:31;16.38;;;7.43;;
78844;SDS011;68195;50.854;2.860;2023-05-28T13:34:02;15.30;;;8.82;;
78844;SDS011;68195;50.854;2.860;2023-05-28T13:36:29;16.98;;;8.90;;
78844;SDS011;68195;50.854;2.860;2023-05-28T13:38:55;17.95;;;7.93;;
78844;SDS011;68195;50.854;2.860;2023-05-28T13:41:21;16.55;;;8.55;;
78844;SDS011;68195;50.854;2.860;2023-05-28T13:43:50;20.83;;;8.65;;
78844;SDS011;68195;50.854;2.860;2023-05-28T13:46:18;17.50;;;8.10;;
78844;SDS011;68195;50.854;2.860;2023-05-28T13:48:47;16.95;;;8.43;;
78844;SDS011;68195;50.854;2.860;2023-05-28T13:51:12;17.50;;;7.63;;
78844;SDS011;68195;50.854;2.860;2023-05-28T13:53:40;20.95;;;9.73;;
78844;SDS011;68195;50.854;2.860;2023-05-28T13:56:06;23.02;;;8.18;;
78844;SDS011;68195;50.854;2.860;2023-05-28T13:58:31;16.50;;;7.18;;
78844;SDS011;68195;50.854;2.860;2023-05-28T14:00:57;17.65;;;7.63;;
78844;SDS011;68195;50.854;2.860;2023-05-28T14:03:25;17.35;;;8.00;;
78844;SDS011;68195;50.854;2.860;2023-05-28T14:05:50;18.75;;;8.90;;
78844;SDS011;68195;50.854;2.860;2023-05-28T14:08:18;15.82;;;7.93;;
78844;SDS011;68195;50.854;2.860;2023-05-28T14:10:43;18.90;;;8.55;;
78844;SDS011;68195;50.854;2.860;2023-05-28T14:13:08;18.02;;;8.45;;
78844;SDS011;68195;50.854;2.860;2023-05-28T14:15:37;19.40;;;8.02;;
78844;SDS011;68195;50.854;2.860;2023-05-28T14:21:27;18.02;;;7.93;;
78844;SDS011;68195;50.854;2.860;2023-05-28T14:23:52;12.88;;;6.68;;
78844;SDS011;68195;50.854;2.860;2023-05-28T14:26:20;16.25;;;7.97;;
78844;SDS011;68195;50.854;2.860;2023-05-28T14:28:45;16.85;;;7.80;;
78844;SDS011;68195;50.854;2.860;2023-05-28T14:31:11;14.55;;;7.47;;
78844;SDS011;68195;50.854;2.860;2023-05-28T14:33:36;18.88;;;8.73;;
78844;SDS011;68195;50.854;2.860;2023-05-28T14:36:01;16.67;;;7.78;;
78844;SDS011;68195;50.854;2.860;2023-05-28T14:38:29;18.45;;;7.68;;
78844;SDS011;68195;50.854;2.860;2023-05-28T14:40:55;15.40;;;7.57;;
78844;SDS011;68195;50.854;2.860;2023-05-28T14:43:25;17.52;;;7.70;;
78844;SDS011;68195;50.854;2.860;2023-05-28T14:45:51;18.92;;;7.50;;
78844;SDS011;68195;50.854;2.860;2023-05-28T14:48:18;17.42;;;7.75;;
78844;SDS011;68195;50.854;2.860;2023-05-28T14:50:46;25.38;;;7.82;;
78844;SDS011;68195;50.854;2.860;2023-05-28T14:53:12;17.15;;;8.15;;
78844;SDS011;68195;50.854;2.860;2023-05-28T14:55:41;13.30;;;6.53;;
78844;SDS011;68195;50.854;2.860;2023-05-28T14:58:06;12.45;;;6.53;;
78844;SDS011;68195;50.854;2.860;2023-05-28T15:00:34;16.63;;;7.43;;
78844;SDS011;68195;50.854;2.860;2023-05-28T15:03:02;17.95;;;7.60;;
78844;SDS011;68195;50.854;2.860;2023-05-28T15:05:30;11.02;;;5.97;;
78844;SDS011;68195;50.854;2.860;2023-05-28T15:07:55;12.77;;;7.50;;
78844;SDS011;68195;50.854;2.860;2023-05-28T15:10:28;15.05;;;6.82;;
78844;SDS011;68195;50.854;2.860;2023-05-28T15:12:54;14.15;;;6.60;;
78844;SDS011;68195;50.854;2.860;2023-05-28T15:15:21;12.85;;;7.25;;
78844;SDS011;68195;50.854;2.860;2023-05-28T15:17:49;16.67;;;7.30;;
78844;SDS011;68195;50.854;2.860;2023-05-28T15:20:15;14.15;;;6.68;;
78844;SDS011;68195;50.854;2.860;2023-05-28T15:22:40;15.90;;;6.05;;
78844;SDS011;68195;50.854;2.860;2023-05-28T15:25:06;16.17;;;6.15;;
78844;SDS011;68195;50.854;2.860;2023-05-28T15:27:32;16.15;;;6.72;;
78844;SDS011;68195;50.854;2.860;2023-05-28T15:29:59;16.55;;;6.88;;
78844;SDS011;68195;50.854;2.860;2023-05-28T15:32:25;11.60;;;5.53;;
78844;SDS011;68195;50.854;2.860;2023-05-28T15:34:50;16.67;;;6.28;;
78844;SDS011;68195;50.854;2.860;2023-05-28T15:37:16;13.98;;;6.15;;
78844;SDS011;68195;50.854;2.860;2023-05-28T15:39:41;16.50;;;5.78;;
78844;SDS011;68195;50.854;2.860;2023-05-28T15:42:10;13.40;;;6.30;;
78844;SDS011;68195;50.854;2.860;2023-05-28T15:44:36;11.70;;;4.97;;
78844;SDS011;68195;50.854;2.860;2023-05-28T15:47:02;15.18;;;5.82;;
78844;SDS011;68195;50.854;2.860;2023-05-28T15:49:28;16.85;;;6.13;;
78844;SDS011;68195;50.854;2.860;2023-05-28T15:51:55;12.88;;;5.38;;
78844;SDS011;68195;50.854;2.860;2023-05-28T15:54:22;14.20;;;5.85;;
78844;SDS011;68195;50.854;2.860;2023-05-28T15:56:47;15.05;;;5.97;;
78844;SDS011;68195;50.854;2.860;2023-05-28T15:59:14;12.13;;;5.85;;
78844;SDS011;68195;50.854;2.860;2023-05-28T16:01:40;11.05;;;5.15;;
78844;SDS011;68195;50.854;2.860;2023-05-28T16:04:09;12.82;;;6.00;;
78844;SDS011;68195;50.854;2.860;2023-05-28T16:06:34;13.40;;;5.88;;
78844;SDS011;68195;50.854;2.860;2023-05-28T16:09:00;11.57;;;6.22;;
78844;SDS011;68195;50.854;2.860;2023-05-28T16:11:31;14.73;;;6.22;;
78844;SDS011;68195;50.854;2.860;2023-05-28T16:14:00;11.50;;;5.40;;
78844;SDS011;68195;50.854;2.860;2023-05-28T16:16:30;13.75;;;6.15;;
78844;SDS011;68195;50.854;2.860;2023-05-28T16:19:00;12.73;;;5.63;;
78844;SDS011;68195;50.854;2.860;2023-05-28T16:21:26;12.55;;;6.43;;
78844;SDS011;68195;50.854;2.860;2023-05-28T16:23:52;13.45;;;6.00;;
78844;SDS011;68195;50.854;2.860;2023-05-28T16:26:17;12.65;;;5.82;;
78844;SDS011;68195;50.854;2.860;2023-05-28T16:28:43;16.05;;;5.90;;
78844;SDS011;68195;50.854;2.860;2023-05-28T16:31:11;13.57;;;6.00;;
78844;SDS011;68195;50.854;2.860;2023-05-28T16:36:08;16.98;;;5.93;;